Time;durP1;ratioP1;P1;durP2;ratioP2;P2;SDS_P1;SDS_P2;PMS_P1;PMS_P2;Temp;Humidity;BMP_temperature;BMP_pressure;BME280_temperature;BME280_humidity;BME280_pressure;Samples;Min_cycle;Max_cycle;Signal;HPM_P1;HPM_P2
2022/01/12 00:00:19;;;;;;;0.40;0.40;;;0.60;99.90;;;;;;5093358;28;20780;-70
2022/01/12 00:03:10;;;;;;;0.40;0.40;;;0.60;99.90;;;;;;5093920;28;20447;-69
2022/01/12 00:05:57;;;;;;;0.60;0.60;;;0.60;99.90;;;;;;5094041;28;20499;-69
2022/01/12 00:08:45;;;;;;;0.50;0.50;;;0.60;99.90;;;;;;5093554;28;20431;-69
2022/01/12 00:11:32;;;;;;;0.40;0.40;;;0.60;99.90;;;;;;5093408;28;20419;-70
2022/01/12 00:14:19;;;;;;;0.93;0.93;;;0.60;99.90;;;;;;5093583;28;20489;-70
2022/01/12 00:17:06;;;;;;;0.40;0.40;;;0.50;99.90;;;;;;5094190;28;20777;-70
2022/01/12 00:19:54;;;;;;;0.67;0.67;;;0.30;99.90;;;;;;5093437;28;20778;-69
2022/01/12 00:22:42;;;;;;;0.40;0.40;;;0.10;99.90;;;;;;5093248;28;20438;-70
2022/01/12 00:25:32;;;;;;;0.40;0.40;;;0.10;99.90;;;;;;5094275;28;20418;-70
2022/01/12 00:34:44;;;;;;;0.40;0.40;;;0.20;99.90;;;;;;5093335;28;20510;-69
2022/01/12 00:37:32;;;;;;;0.40;0.40;;;0.30;99.90;;;;;;5092833;28;20934;-70
2022/01/12 00:40:19;;;;;;;0.40;0.40;;;0.40;99.90;;;;;;5093186;28;20430;-71
2022/01/12 00:43:06;;;;;;;0.40;0.40;;;0.40;99.90;;;;;;5093656;28;20446;-70
2022/01/12 00:45:54;;;;;;;0.40;0.40;;;0.40;99.90;;;;;;5092647;28;20423;-70
2022/01/12 00:48:42;;;;;;;0.40;0.40;;;0.50;99.90;;;;;;5088065;28;20424;-70
2022/01/12 00:51:32;;;;;;;0.40;0.40;;;0.50;99.90;;;;;;5073107;28;20423;-69
2022/01/12 00:54:21;;;;;;;0.40;0.40;;;0.50;99.90;;;;;;5072916;28;20563;-70
2022/01/12 00:57:08;;;;;;;0.50;0.50;;;0.60;99.90;;;;;;5073409;28;20420;-70
2022/01/12 00:59:55;;;;;;;0.40;0.40;;;0.60;99.90;;;;;;5072000;28;20511;-69
2022/01/12 01:02:42;;;;;;;0.40;0.40;;;0.60;99.90;;;;;;5072389;28;20443;-70
2022/01/12 01:05:32;;;;;;;0.40;0.40;;;0.40;99.90;;;;;;5072163;28;20419;-69
2022/01/12 01:08:19;;;;;;;0.50;0.50;;;0.30;99.90;;;;;;5073352;28;20434;-70
2022/01/12 01:11:07;;;;;;;0.40;0.40;;;0.40;99.90;;;;;;5073673;28;20426;-69
2022/01/12 01:13:59;;;;;;;10.03;2.40;;;0.40;99.90;;;;;;5073118;28;20459;-70
2022/01/12 01:16:53;;;;;;;0.40;0.40;;;0.50;99.90;;;;;;5072231;28;20420;-70
2022/01/12 01:25:50;;;;;;;0.50;0.50;;;0.40;99.90;;;;;;5072884;28;20418;-70
2022/01/12 01:28:38;;;;;;;0.47;0.47;;;0.50;99.90;;;;;;5072702;28;20432;-70
2022/01/12 01:31:30;;;;;;;0.40;0.40;;;0.50;99.90;;;;;;5072295;28;20415;-71
2022/01/12 01:34:18;;;;;;;0.40;0.40;;;0.50;99.90;;;;;;5071882;28;20460;-69
2022/01/12 01:37:05;;;;;;;0.50;0.50;;;0.50;99.90;;;;;;5072210;28;20462;-70
2022/01/12 01:39:52;;;;;;;0.40;0.40;;;0.60;99.90;;;;;;5072296;28;20420;-71
2022/01/12 01:42:54;;;;;;;0.40;0.40;;;0.50;99.90;;;;;;5072073;28;20829;-70
2022/01/12 01:55:12;;;;;;;0.40;0.40;;;0.30;99.90;;;;;;5092193;28;20471;-72
2022/01/12 01:57:59;;;;;;;0.40;0.40;;;0.30;99.90;;;;;;5090539;28;20420;-70
2022/01/12 02:00:48;;;;;;;0.40;0.40;;;0.40;99.90;;;;;;5091010;28;20426;-70
2022/01/12 02:03:35;;;;;;;0.80;0.80;;;0.40;99.90;;;;;;5087726;28;20447;-71
2022/01/12 02:06:22;;;;;;;0.40;0.40;;;0.50;99.90;;;;;;5090457;28;20437;-69
2022/01/12 02:09:09;;;;;;;0.40;0.40;;;0.60;99.90;;;;;;5076200;28;20419;-70
2022/01/12 02:11:56;;;;;;;0.50;0.50;;;0.60;99.90;;;;;;5072215;28;20978;-70
2022/01/12 02:14:43;;;;;;;0.40;0.40;;;0.50;99.90;;;;;;5072221;28;20466;-71
2022/01/12 02:17:37;;;;;;;0.40;0.40;;;0.70;99.90;;;;;;5071699;28;20422;-70
2022/01/12 02:35:10;;;;;;;0.40;0.40;;;0.60;99.90;;;;;;5072412;28;20446;-70
2022/01/12 02:36:14;;;;;;;0.40;0.40;;;0.80;99.90;;;;;;5071686;28;20456;-70
2022/01/12 02:42:07;;;;;;;0.40;0.40;;;0.80;99.90;;;;;;5072129;28;20439;-70
2022/01/12 02:51:10;;;;;;;0.40;0.40;;;0.90;99.90;;;;;;5077830;28;20441;-70
2022/01/12 02:53:57;;;;;;;0.50;0.50;;;0.90;99.90;;;;;;5070741;28;20824;-70
2022/01/12 02:56:45;;;;;;;0.50;0.50;;;0.80;99.90;;;;;;5078143;28;20427;-70
2022/01/12 02:59:32;;;;;;;1.13;1.13;;;0.80;99.90;;;;;;5090663;28;20422;-70
2022/01/12 03:02:25;;;;;;;0.50;0.50;;;0.80;99.90;;;;;;5090757;28;20450;-71
2022/01/12 03:05:34;;;;;;;0.40;0.40;;;0.80;99.90;;;;;;5090497;28;20415;-70
2022/01/12 03:08:24;;;;;;;0.40;0.40;;;0.80;99.90;;;;;;5090573;28;20430;-71
2022/01/12 03:11:12;;;;;;;0.50;0.50;;;0.80;99.90;;;;;;5095293;28;20434;-70
2022/01/12 03:14:01;;;;;;;0.60;0.60;;;0.80;99.90;;;;;;5094597;28;20986;-71
2022/01/12 03:16:48;;;;;;;0.63;0.63;;;0.80;99.90;;;;;;5094879;28;20434;-70
2022/01/12 03:19:34;;;;;;;0.40;0.40;;;0.90;99.90;;;;;;5094280;28;20951;-69
2022/01/12 03:22:21;;;;;;;0.50;0.50;;;0.80;99.90;;;;;;5094278;28;20442;-71
2022/01/12 03:25:09;;;;;;;0.97;0.97;;;0.80;99.90;;;;;;5095323;28;20418;-70
2022/01/12 03:28:00;;;;;;;0.40;0.40;;;0.90;99.90;;;;;;5096197;28;20842;-71
2022/01/12 03:30:53;;;;;;;0.50;0.50;;;0.80;99.90;;;;;;5095089;28;20886;-70
2022/01/12 03:33:54;;;;;;;0.40;0.40;;;0.80;99.90;;;;;;5094320;28;20535;-70
2022/01/12 03:36:53;;;;;;;0.40;0.40;;;0.80;99.90;;;;;;5094794;28;20422;-70
2022/01/12 03:39:40;;;;;;;0.40;0.40;;;0.90;99.90;;;;;;5093984;28;20441;-71
2022/01/12 03:42:27;;;;;;;0.40;0.40;;;0.80;99.90;;;;;;5094061;28;20441;-70
2022/01/12 03:45:15;;;;;;;0.50;0.50;;;0.90;99.90;;;;;;5094815;28;20927;-70
2022/01/12 03:48:04;;;;;;;0.40;0.40;;;0.90;99.90;;;;;;5093985;28;20419;-70
2022/01/12 03:50:51;;;;;;;0.40;0.40;;;0.90;99.90;;;;;;5074893;28;20420;-70
2022/01/12 03:53:38;;;;;;;0.40;0.40;;;0.90;99.90;;;;;;5073761;28;20978;-70
2022/01/12 03:56:25;;;;;;;0.40;0.40;;;0.80;99.90;;;;;;5074552;28;20439;-70
2022/01/12 03:59:12;;;;;;;0.50;0.50;;;0.80;99.90;;;;;;5073466;28;20424;-70
2022/01/12 04:01:59;;;;;;;0.40;0.40;;;0.90;99.90;;;;;;5073514;28;20439;-70
2022/01/12 04:05:08;;;;;;;0.40;0.40;;;0.90;99.90;;;;;;5073194;28;20427;-69
2022/01/12 04:11:01;;;;;;;0.40;0.40;;;0.90;99.90;;;;;;5074663;28;20920;-69
2022/01/12 04:13:49;;;;;;;0.50;0.50;;;0.90;99.90;;;;;;5074593;28;20625;-70
2022/01/12 04:16:37;;;;;;;0.40;0.40;;;1.00;99.90;;;;;;5074611;28;20416;-70
2022/01/12 04:19:25;;;;;;;0.40;0.40;;;1.00;99.90;;;;;;5081603;28;20434;-71
2022/01/12 04:25:18;;;;;;;0.67;0.67;;;1.00;99.90;;;;;;5093742;28;20426;-70
2022/01/12 04:28:06;;;;;;;0.40;0.40;;;1.00;99.90;;;;;;5092903;28;20916;-71
2022/01/12 04:30:54;;;;;;;0.40;0.40;;;1.00;99.90;;;;;;5093718;28;20430;-70
2022/01/12 04:33:44;;;;;;;0.40;0.40;;;1.00;99.90;;;;;;5092824;28;20418;-70
2022/01/12 04:36:31;;;;;;;0.40;0.40;;;1.00;99.90;;;;;;5093479;28;20949;-69
2022/01/12 04:39:20;;;;;;;0.40;0.40;;;0.90;99.90;;;;;;5092915;28;20424;-70
2022/01/12 04:42:07;;;;;;;0.40;0.40;;;0.80;99.90;;;;;;5099478;28;20446;-70
2022/01/12 04:45:01;;;;;;;0.50;0.50;;;0.70;99.90;;;;;;5108311;28;20426;-71
2022/01/12 04:48:01;;;;;;;0.40;0.40;;;0.70;99.90;;;;;;5107749;28;20442;-70
2022/01/12 04:50:49;;;;;;;2.30;1.80;;;0.70;99.90;;;;;;5086830;28;20419;-70
2022/01/12 04:53:36;;;;;;;0.53;0.53;;;0.80;99.90;;;;;;5086743;28;20440;-70
2022/01/12 04:56:28;;;;;;;0.40;0.40;;;0.80;99.90;;;;;;5083580;28;20925;-71
2022/01/12 04:59:15;;;;;;;0.40;0.40;;;0.80;99.90;;;;;;5081017;28;20846;-70
2022/01/12 05:06:19;;;;;;;0.40;0.40;;;0.70;99.90;;;;;;5077965;28;20800;-70
2022/01/12 05:08:48;;;;;;;0.40;0.40;;;0.90;99.90;;;;;;5030882;28;20441;-70
2022/01/12 05:14:47;;;;;;;0.40;0.40;;;1.00;99.90;;;;;;5072012;28;20467;-71
2022/01/12 05:17:35;;;;;;;0.60;0.60;;;1.10;99.90;;;;;;5073972;28;20416;-70
2022/01/12 05:20:23;;;;;;;0.40;0.40;;;1.10;99.90;;;;;;5073238;28;20431;-69
2022/01/12 05:23:10;;;;;;;0.40;0.40;;;1.10;99.90;;;;;;5072892;28;20485;-69
2022/01/12 05:25:57;;;;;;;0.40;0.40;;;1.10;99.90;;;;;;5073218;28;20473;-71
2022/01/12 05:28:46;;;;;;;0.50;0.50;;;1.10;99.90;;;;;;5073587;28;20799;-69
2022/01/12 05:31:33;;;;;;;0.40;0.40;;;1.20;99.90;;;;;;5073367;28;20986;-70
2022/01/12 05:34:20;;;;;;;0.40;0.40;;;1.10;99.90;;;;;;5072499;28;20866;-70
2022/01/12 05:37:07;;;;;;;0.70;0.70;;;1.10;99.90;;;;;;5073478;28;20443;-70
2022/01/12 05:39:54;;;;;;;0.70;0.70;;;1.10;99.90;;;;;;5073563;28;20415;-71
2022/01/12 05:42:43;;;;;;;0.40;0.40;;;1.10;99.90;;;;;;5072823;28;20440;-70
2022/01/12 05:45:33;;;;;;;0.40;0.40;;;1.10;99.90;;;;;;5072782;28;20513;-70
2022/01/12 05:51:22;;;;;;;0.40;0.40;;;1.20;99.90;;;;;;5060346;28;20426;-69
2022/01/12 05:54:09;;;;;;;0.40;0.40;;;1.10;99.90;;;;;;5092627;28;20801;-70
2022/01/12 05:56:56;;;;;;;0.40;0.40;;;1.00;99.90;;;;;;5092450;28;20946;-70
2022/01/12 05:59:43;;;;;;;0.40;0.40;;;0.90;99.90;;;;;;5093014;28;20445;-71
2022/01/12 06:02:31;;;;;;;0.40;0.40;;;0.90;99.90;;;;;;5093045;28;20449;-70
2022/01/12 06:05:19;;;;;;;0.50;0.50;;;0.90;99.90;;;;;;5094267;28;20422;-70
2022/01/12 06:08:07;;;;;;;0.40;0.40;;;0.70;99.90;;;;;;5095426;28;20422;-70
2022/01/12 06:10:54;;;;;;;0.40;0.40;;;0.60;99.90;;;;;;5098721;28;20430;-69
2022/01/12 06:13:41;;;;;;;0.40;0.40;;;0.40;99.90;;;;;;5103216;28;20423;-70
2022/01/12 06:16:29;;;;;;;0.40;0.40;;;0.40;99.90;;;;;;5103346;28;20423;-71
2022/01/12 06:19:18;;;;;;;0.40;0.40;;;0.30;99.90;;;;;;5102671;28;20430;-70
2022/01/12 06:22:06;;;;;;;0.70;0.70;;;0.20;99.90;;;;;;5103760;28;20450;-69
2022/01/12 06:24:54;;;;;;;0.40;0.40;;;0.20;99.90;;;;;;5105953;28;20422;-69
2022/01/12 06:27:49;;;;;;;0.40;0.40;;;0.10;99.90;;;;;;5104592;28;20456;-70
2022/01/12 06:33:45;;;;;;;0.40;0.40;;;0.00;99.90;;;;;;5105386;28;20440;-69
2022/01/12 06:36:33;;;;;;;0.40;0.40;;;-0.10;99.90;;;;;;5105743;28;20438;-70
2022/01/12 06:39:20;;;;;;;0.50;0.50;;;0.00;99.90;;;;;;5105442;28;20434;-69
2022/01/12 06:42:08;;;;;;;0.40;0.40;;;0.00;99.90;;;;;;5105666;28;20512;-69
2022/01/12 06:44:55;;;;;;;0.50;0.50;;;0.10;99.90;;;;;;5106115;28;20422;-70
2022/01/12 06:47:42;;;;;;;0.83;0.83;;;0.10;99.90;;;;;;5108106;28;20460;-69
2022/01/12 06:50:29;;;;;;;1.03;1.03;;;0.20;99.90;;;;;;5113265;28;20445;-70
2022/01/12 06:53:17;;;;;;;0.50;0.50;;;0.30;99.90;;;;;;5114350;28;20439;-71
2022/01/12 06:56:05;;;;;;;0.50;0.50;;;0.30;99.90;;;;;;5097209;28;20466;-70
2022/01/12 06:58:52;;;;;;;0.50;0.50;;;0.40;99.90;;;;;;5093759;28;20935;-71
2022/01/12 07:01:39;;;;;;;0.40;0.40;;;0.40;99.90;;;;;;5093949;28;20802;-71
2022/01/12 07:04:26;;;;;;;0.40;0.40;;;0.40;99.90;;;;;;5104840;28;20455;-69
2022/01/12 07:07:13;;;;;;;0.40;0.40;;;0.50;99.90;;;;;;5094641;28;20434;-70
2022/01/12 07:10:02;;;;;;;0.40;0.40;;;0.60;99.90;;;;;;5096154;28;20438;-69
2022/01/12 07:12:49;;;;;;;0.50;0.50;;;0.60;99.90;;;;;;5095942;28;20565;-70
2022/01/12 07:15:36;;;;;;;0.50;0.50;;;0.70;99.90;;;;;;5080900;28;20485;-69
2022/01/12 07:18:26;;;;;;;0.50;0.50;;;0.80;99.90;;;;;;5084867;28;20949;-70
2022/01/12 07:21:12;;;;;;;0.40;0.40;;;0.90;99.90;;;;;;5087510;28;20503;-69
2022/01/12 07:23:59;;;;;;;0.47;0.47;;;0.90;99.90;;;;;;5075489;28;20426;-69
2022/01/12 07:26:48;;;;;;;0.50;0.50;;;0.80;99.90;;;;;;5076085;28;20827;-69
2022/01/12 07:29:35;;;;;;;0.40;0.40;;;0.90;99.90;;;;;;5075917;28;20936;-69
2022/01/12 07:32:22;;;;;;;0.40;0.40;;;0.90;99.90;;;;;;5074783;28;20452;-70
2022/01/12 07:35:10;;;;;;;0.40;0.40;;;1.00;99.90;;;;;;5086207;28;20924;-70
2022/01/12 07:37:57;;;;;;;0.40;0.40;;;1.00;99.90;;;;;;5082264;28;20427;-69
2022/01/12 07:40:44;;;;;;;0.50;0.50;;;1.10;99.90;;;;;;5084947;28;20431;-71
2022/01/12 07:43:33;;;;;;;0.47;0.47;;;1.20;99.90;;;;;;5088149;28;20449;-69
2022/01/12 07:46:20;;;;;;;0.40;0.40;;;1.30;99.90;;;;;;5103106;28;20430;-70
2022/01/12 07:49:07;;;;;;;0.40;0.40;;;1.40;99.90;;;;;;5093958;28;20973;-70
2022/01/12 07:51:54;;;;;;;0.50;0.50;;;1.40;99.90;;;;;;5091704;28;20986;-70
2022/01/12 07:54:41;;;;;;;0.40;0.40;;;1.50;99.90;;;;;;5081975;28;20449;-71
2022/01/12 07:57:29;;;;;;;2.20;2.00;;;1.50;99.90;;;;;;5087136;28;20422;-71
2022/01/12 08:00:20;;;;;;;0.40;0.40;;;1.50;99.90;;;;;;5092437;28;20453;-68
2022/01/12 08:03:07;;;;;;;1.90;1.80;;;1.60;99.90;;;;;;5093695;28;20473;-71
2022/01/12 08:05:54;;;;;;;1.17;1.17;;;1.70;99.90;;;;;;5089271;28;20437;-71
2022/01/12 08:08:41;;;;;;;0.50;0.50;;;1.80;99.90;;;;;;5087005;28;20423;-71
2022/01/12 08:11:29;;;;;;;1.03;1.03;;;1.90;99.90;;;;;;5089448;28;20427;-70
2022/01/12 08:14:16;;;;;;;0.40;0.40;;;2.00;99.90;;;;;;5080258;28;20432;-69
2022/01/12 08:17:05;;;;;;;0.40;0.40;;;2.10;99.90;;;;;;5093732;28;20426;-69
2022/01/12 08:19:54;;;;;;;0.50;0.50;;;2.10;99.90;;;;;;5093630;28;20434;-71
2022/01/12 08:22:42;;;;;;;0.40;0.40;;;2.20;99.90;;;;;;5094142;28;20451;-69
2022/01/12 08:25:29;;;;;;;0.40;0.40;;;2.20;99.90;;;;;;5093935;28;20500;-69
2022/01/12 08:28:16;;;;;;;0.50;0.50;;;2.20;99.90;;;;;;5094109;28;20433;-70
2022/01/12 08:31:03;;;;;;;0.47;0.47;;;2.20;99.90;;;;;;5094154;28;20439;-70
2022/01/12 08:33:51;;;;;;;0.50;0.50;;;2.30;99.90;;;;;;5093499;28;20445;-70
2022/01/12 08:36:39;;;;;;;0.93;0.93;;;2.30;99.90;;;;;;5092835;28;20842;-71
2022/01/12 08:39:26;;;;;;;0.50;0.50;;;2.40;99.90;;;;;;5088083;28;20430;-70
2022/01/12 08:42:13;;;;;;;0.50;0.50;;;2.50;99.90;;;;;;5072837;28;20881;-71
2022/01/12 08:45:02;;;;;;;0.50;0.50;;;2.60;99.90;;;;;;5077085;28;20814;-71
2022/01/12 08:47:49;;;;;;;0.50;0.50;;;2.70;99.90;;;;;;5084265;28;20446;-71
2022/01/12 08:50:37;;;;;;;0.40;0.40;;;2.80;99.90;;;;;;5093846;28;20422;-69
2022/01/12 08:53:24;;;;;;;0.40;0.40;;;2.80;99.90;;;;;;5082315;28;20455;-70
2022/01/12 08:56:11;;;;;;;0.50;0.50;;;3.00;99.90;;;;;;5088572;28;20493;-70
2022/01/12 08:58:58;;;;;;;2.53;1.33;;;3.10;99.90;;;;;;5089415;28;20433;-69
2022/01/12 09:01:45;;;;;;;0.40;0.40;;;3.10;99.90;;;;;;5089918;28;20913;-70
2022/01/12 09:04:32;;;;;;;0.40;0.40;;;3.10;99.90;;;;;;5079149;28;20433;-70
2022/01/12 09:07:21;;;;;;;0.57;0.57;;;3.20;99.90;;;;;;5092386;28;20446;-71
2022/01/12 09:10:09;;;;;;;0.47;0.47;;;3.30;99.90;;;;;;5092701;28;20446;-70
2022/01/12 09:12:57;;;;;;;0.40;0.40;;;3.40;99.90;;;;;;5093300;28;20473;-68
2022/01/12 09:15:44;;;;;;;3.13;2.97;;;3.60;99.90;;;;;;5093662;28;20478;-70
2022/01/12 09:18:31;;;;;;;0.97;0.97;;;3.50;99.90;;;;;;5092611;28;20422;-69
2022/01/12 09:21:18;;;;;;;0.50;0.50;;;3.40;99.90;;;;;;5092903;28;20435;-70
2022/01/12 09:24:07;;;;;;;0.50;0.50;;;3.30;99.90;;;;;;5074578;28;20455;-69
2022/01/12 09:26:54;;;;;;;1.20;1.20;;;3.30;99.90;;;;;;5087385;28;20426;-70
2022/01/12 09:29:42;;;;;;;0.40;0.40;;;3.40;99.90;;;;;;5086669;28;20430;-70
2022/01/12 09:32:29;;;;;;;2.67;1.00;;;3.40;99.90;;;;;;5086034;28;20792;-69
2022/01/12 09:35:16;;;;;;;0.40;0.40;;;3.30;99.90;;;;;;5093574;28;20476;-70
2022/01/12 09:38:03;;;;;;;1.90;1.80;;;3.30;99.90;;;;;;5086562;28;21150;-71
2022/01/12 09:40:55;;;;;;;0.97;0.97;;;3.40;99.90;;;;;;5078127;28;20934;-70
2022/01/12 09:43:43;;;;;;;1.03;1.03;;;3.50;99.90;;;;;;5092293;28;20447;-70
2022/01/12 09:46:30;;;;;;;0.77;0.77;;;3.40;99.90;;;;;;5093599;28;20517;-69
2022/01/12 09:49:17;;;;;;;0.60;0.60;;;3.40;99.90;;;;;;5084583;28;20431;-69
2022/01/12 09:52:04;;;;;;;0.50;0.50;;;3.40;99.90;;;;;;5093494;28;20913;-69
2022/01/12 09:54:51;;;;;;;0.40;0.40;;;3.50;99.90;;;;;;5090179;28;20418;-70
2022/01/12 09:57:41;;;;;;;1.03;1.03;;;3.50;99.90;;;;;;5092946;28;20962;-70
2022/01/12 10:00:28;;;;;;;2.43;2.33;;;3.60;99.90;;;;;;5080711;28;20454;-70
2022/01/12 10:03:15;;;;;;;0.80;0.80;;;3.80;99.90;;;;;;5093265;28;20442;-70
2022/01/12 10:06:13;;;;;;;2.67;1.80;;;3.80;99.90;;;;;;5093427;28;20422;-70
2022/01/12 10:09:00;;;;;;;0.40;0.40;;;3.90;99.90;;;;;;5092559;28;20419;-70
2022/01/12 10:11:51;;;;;;;0.97;0.97;;;3.90;99.90;;;;;;5092658;28;20462;-71
2022/01/12 10:14:42;;;;;;;4.27;3.87;;;3.90;99.90;;;;;;5093089;28;20930;-69
2022/01/12 10:17:34;;;;;;;0.80;0.80;;;3.90;99.90;;;;;;5092660;28;20474;-68
2022/01/12 10:20:23;;;;;;;1.23;1.23;;;3.80;99.90;;;;;;5092222;28;20442;-72
2022/01/12 10:23:13;;;;;;;0.40;0.40;;;3.80;99.90;;;;;;5102759;28;20529;-70
2022/01/12 10:26:00;;;;;;;0.80;0.80;;;3.90;99.90;;;;;;5100091;28;20517;-71
2022/01/12 10:28:47;;;;;;;0.50;0.50;;;4.00;99.90;;;;;;5101552;28;21283;-70
2022/01/12 10:31:48;;;;;;;2.50;2.40;;;4.20;99.90;;;;;;5101046;28;20430;-70
2022/01/12 10:34:38;;;;;;;0.50;0.50;;;4.20;99.90;;;;;;5097936;28;20437;-69
2022/01/12 10:37:26;;;;;;;0.40;0.40;;;4.40;99.90;;;;;;5088594;28;20471;-70
2022/01/12 10:40:13;;;;;;;2.10;1.13;;;4.30;99.90;;;;;;5092193;28;20464;-69
2022/01/12 10:43:00;;;;;;;1.67;1.20;;;4.50;99.90;;;;;;5090343;28;21031;-70
2022/01/12 10:45:49;;;;;;;0.50;0.50;;;4.60;99.90;;;;;;5098010;28;20425;-70
2022/01/12 10:48:43;;;;;;;0.50;0.50;;;4.50;99.90;;;;;;5096226;28;20992;-68
2022/01/12 10:51:31;;;;;;;6.00;2.93;;;4.50;99.90;;;;;;5083427;28;20435;-68
2022/01/12 10:54:18;;;;;;;1.00;1.00;;;4.30;99.90;;;;;;5092663;28;20430;-70
2022/01/12 10:57:17;;;;;;;1.07;0.97;;;4.50;99.90;;;;;;5091686;28;20458;-69
2022/01/12 11:00:09;;;;;;;3.43;3.23;;;4.80;99.90;;;;;;5090721;28;20431;-69
2022/01/12 11:02:58;;;;;;;2.93;2.73;;;4.40;99.90;;;;;;5092730;28;20446;-71
2022/01/12 11:05:47;;;;;;;1.93;1.83;;;4.30;99.90;;;;;;5092439;28;20430;-69
2022/01/12 11:08:35;;;;;;;3.23;1.33;;;4.30;99.90;;;;;;5092424;28;20427;-68
2022/01/12 11:11:25;;;;;;;0.50;0.50;;;4.30;99.90;;;;;;5088258;28;20431;-69
2022/01/12 11:14:12;;;;;;;4.63;2.63;;;4.30;99.90;;;;;;5088808;28;20426;-69
2022/01/12 11:17:00;;;;;;;0.77;0.77;;;4.20;99.90;;;;;;5091584;28;20473;-70
2022/01/12 11:19:55;;;;;;;3.87;1.93;;;4.10;99.90;;;;;;5088611;28;21115;-69
2022/01/12 11:22:55;;;;;;;19.17;4.10;;;4.10;99.90;;;;;;5091347;28;20833;-70
2022/01/12 11:25:44;;;;;;;0.80;0.50;;;4.20;99.90;;;;;;5087507;28;20435;-70
2022/01/12 11:28:39;;;;;;;1.43;1.37;;;4.20;99.90;;;;;;5075939;28;20435;-69
2022/01/12 11:31:28;;;;;;;2.07;1.83;;;4.20;99.90;;;;;;5091036;28;20422;-70
2022/01/12 11:34:18;;;;;;;4.20;1.73;;;4.20;99.90;;;;;;5095774;28;20438;-69
2022/01/12 11:37:13;;;;;;;0.40;0.40;;;4.10;99.90;;;;;;5094766;28;21004;-70
2022/01/12 11:40:09;;;;;;;5.27;3.47;;;4.10;99.90;;;;;;5095720;28;20430;-68
2022/01/12 11:42:56;;;;;;;0.40;0.40;;;4.10;99.90;;;;;;5095336;28;20453;-69
2022/01/12 11:45:43;;;;;;;2.87;2.67;;;4.10;99.90;;;;;;5094959;28;20433;-69
2022/01/12 11:48:32;;;;;;;0.50;0.50;;;4.10;99.90;;;;;;5095013;28;20430;-68
2022/01/12 11:51:32;;;;;;;0.40;0.40;;;3.60;99.90;;;;;;5082331;28;20425;-70
2022/01/12 11:54:21;;;;;;;6.63;2.67;;;4.30;99.90;;;;;;5095010;28;20430;-71
2022/01/12 11:57:11;;;;;;;4.10;3.90;;;4.30;99.90;;;;;;5095562;28;20548;-69
2022/01/12 12:00:00;;;;;;;3.47;2.10;;;4.20;99.90;;;;;;5095716;28;20434;-69
2022/01/12 12:02:49;;;;;;;1.80;1.27;;;4.10;99.90;;;;;;5094764;28;20543;-69
2022/01/12 12:05:40;;;;;;;0.40;0.40;;;4.10;99.90;;;;;;5086141;28;20419;-70
2022/01/12 12:08:27;;;;;;;0.50;0.50;;;4.10;99.90;;;;;;5082219;28;20427;-70
2022/01/12 12:11:15;;;;;;;0.40;0.40;;;4.10;99.90;;;;;;5084806;28;20415;-71
2022/01/12 12:14:07;;;;;;;2.40;1.73;;;4.10;99.90;;;;;;5086107;28;20435;-70
2022/01/12 12:16:55;;;;;;;0.50;0.50;;;4.20;99.90;;;;;;5091164;28;20458;-70
2022/01/12 12:19:42;;;;;;;1.33;1.33;;;4.20;99.90;;;;;;5093133;28;20965;-70
2022/01/12 12:22:30;;;;;;;0.53;0.53;;;4.30;99.90;;;;;;5083734;28;20470;-71
2022/01/12 12:25:19;;;;;;;0.73;0.60;;;4.40;99.90;;;;;;5084573;28;20419;-70
2022/01/12 12:28:09;;;;;;;0.50;0.50;;;4.50;99.90;;;;;;5084841;28;20427;-71
2022/01/12 12:30:57;;;;;;;1.07;1.03;;;4.60;99.90;;;;;;5091844;28;20811;-70
2022/01/12 12:33:44;;;;;;;0.40;0.40;;;4.60;99.90;;;;;;5094304;28;20961;-70
2022/01/12 12:36:31;;;;;;;3.60;0.93;;;4.50;99.90;;;;;;5079756;28;20474;-72
2022/01/12 12:39:18;;;;;;;0.50;0.50;;;5.20;99.90;;;;;;5077566;28;20422;-73
2022/01/12 12:42:13;;;;;;;0.40;0.40;;;4.50;99.90;;;;;;5088303;28;20461;-70
2022/01/12 12:45:02;;;;;;;0.40;0.40;;;4.40;99.90;;;;;;5093680;28;20434;-70
2022/01/12 12:47:51;;;;;;;3.13;3.03;;;4.40;99.90;;;;;;5085117;28;20458;-72
2022/01/12 12:50:39;;;;;;;16.43;2.60;;;4.40;99.90;;;;;;5088972;28;20431;-71
2022/01/12 12:53:27;;;;;;;0.70;0.70;;;4.30;99.90;;;;;;5091106;28;20818;-72
2022/01/12 12:56:19;;;;;;;1.90;1.80;;;4.20;99.90;;;;;;5086391;28;20438;-70
2022/01/12 12:59:07;;;;;;;0.40;0.40;;;4.30;99.90;;;;;;5080061;28;20431;-71
2022/01/12 13:01:54;;;;;;;0.40;0.40;;;4.20;99.90;;;;;;5088565;28;20455;-71
2022/01/12 13:04:42;;;;;;;0.87;0.80;;;4.30;99.90;;;;;;5089175;28;20422;-70
2022/01/12 13:07:35;;;;;;;3.30;1.80;;;4.30;99.90;;;;;;5093771;28;20415;-70
2022/01/12 13:10:24;;;;;;;14.00;5.30;;;4.30;99.90;;;;;;5094519;28;20445;-71
2022/01/12 13:13:12;;;;;;;13.40;8.20;;;4.30;99.90;;;;;;5091620;28;20483;-70
2022/01/12 13:16:00;;;;;;;5.40;3.70;;;4.20;99.90;;;;;;5084942;28;20423;-70
2022/01/12 13:18:48;;;;;;;3.70;2.77;;;4.20;99.90;;;;;;5076760;28;20506;-71
2022/01/12 13:21:41;;;;;;;2.23;2.00;;;4.20;99.90;;;;;;5078003;28;20937;-71
2022/01/12 13:24:29;;;;;;;2.80;2.10;;;4.30;99.90;;;;;;5093320;28;20437;-70
2022/01/12 13:27:16;;;;;;;0.50;0.50;;;4.20;99.90;;;;;;5082861;28;20419;-71
2022/01/12 13:30:06;;;;;;;0.50;0.50;;;4.40;99.90;;;;;;5093011;28;20954;-71
2022/01/12 13:32:55;;;;;;;0.50;0.50;;;4.40;99.90;;;;;;5093568;28;20449;-71
2022/01/12 13:35:42;;;;;;;0.50;0.50;;;4.50;99.90;;;;;;5077615;28;21005;-70
2022/01/12 13:38:32;;;;;;;5.80;2.70;;;4.50;99.90;;;;;;5093454;28;20880;-69
2022/01/12 13:41:24;;;;;;;0.47;0.47;;;4.60;99.90;;;;;;5090978;28;20445;-70
2022/01/12 13:44:16;;;;;;;0.40;0.40;;;4.60;99.90;;;;;;5092398;28;20430;-70
2022/01/12 13:47:10;;;;;;;0.70;0.70;;;4.50;99.90;;;;;;5093908;28;20802;-70
2022/01/12 13:50:03;;;;;;;0.40;0.40;;;4.50;99.90;;;;;;5092886;28;20434;-70
2022/01/12 13:52:54;;;;;;;0.50;0.50;;;4.50;99.90;;;;;;5092305;28;20458;-70
2022/01/12 13:55:52;;;;;;;3.70;2.80;;;4.50;99.90;;;;;;5088204;28;21465;-71
2022/01/12 13:58:39;;;;;;;0.40;0.40;;;4.40;99.90;;;;;;5080447;28;20557;-70
2022/01/12 14:01:31;;;;;;;0.40;0.40;;;4.30;99.90;;;;;;5088601;28;20418;-71
2022/01/12 14:04:28;;;;;;;0.50;0.50;;;4.30;99.90;;;;;;5092357;28;20798;-71
2022/01/12 14:07:22;;;;;;;1.43;1.33;;;4.30;99.90;;;;;;5092378;28;20431;-71
2022/01/12 14:10:11;;;;;;;0.57;0.57;;;4.40;99.90;;;;;;5093063;28;20430;-71
2022/01/12 14:13:00;;;;;;;0.40;0.40;;;4.50;99.90;;;;;;5091754;28;20485;-70
2022/01/12 14:15:47;;;;;;;0.40;0.40;;;4.50;99.90;;;;;;5083849;28;20436;-70
2022/01/12 14:18:34;;;;;;;0.93;0.80;;;4.50;99.90;;;;;;5093365;28;20469;-70
2022/01/12 14:21:21;;;;;;;0.40;0.40;;;4.50;99.90;;;;;;5093540;28;20437;-70
2022/01/12 14:24:10;;;;;;;5.40;4.20;;;4.50;99.90;;;;;;5079464;28;20418;-70
2022/01/12 14:26:56;;;;;;;2.77;2.30;;;4.40;99.90;;;;;;5087838;28;20430;-70
2022/01/12 14:29:45;;;;;;;0.50;0.50;;;4.40;99.90;;;;;;5090991;28;20426;-70
2022/01/12 14:32:36;;;;;;;1.37;1.33;;;4.30;99.90;;;;;;5091876;28;20439;-71
2022/01/12 14:35:25;;;;;;;0.50;0.50;;;4.30;99.90;;;;;;5092265;28;20525;-70
2022/01/12 14:38:12;;;;;;;0.40;0.40;;;4.30;99.90;;;;;;5092211;28;20461;-70
2022/01/12 14:40:59;;;;;;;4.00;1.43;;;4.30;99.90;;;;;;5094193;28;20434;-70
2022/01/12 14:43:49;;;;;;;0.90;0.90;;;4.30;99.90;;;;;;5089886;28;20950;-71
2022/01/12 14:46:37;;;;;;;0.40;0.40;;;4.30;99.90;;;;;;5092065;28;20458;-71
2022/01/12 14:49:24;;;;;;;0.80;0.77;;;4.30;99.90;;;;;;5091589;28;20841;-71
2022/01/12 14:52:11;;;;;;;5.40;0.90;;;4.30;99.90;;;;;;5095844;28;20446;-71
2022/01/12 14:54:58;;;;;;;0.40;0.40;;;4.30;99.90;;;;;;5092019;28;20445;-70
2022/01/12 14:57:45;;;;;;;0.40;0.40;;;4.30;99.90;;;;;;5091177;28;20481;-71
2022/01/12 15:00:35;;;;;;;1.90;1.80;;;4.20;99.90;;;;;;5092548;28;20434;-72
2022/01/12 15:03:24;;;;;;;0.43;0.43;;;4.20;99.90;;;;;;5100485;28;20461;-71
2022/01/12 15:06:10;;;;;;;4.03;2.33;;;4.10;99.90;;;;;;5102710;28;20419;-70
2022/01/12 15:08:57;;;;;;;1.60;1.43;;;4.00;99.90;;;;;;5106742;28;20422;-72
2022/01/12 15:11:48;;;;;;;0.80;0.80;;;4.00;99.90;;;;;;5112315;28;20885;-71
2022/01/12 15:14:45;;;;;;;2.10;2.10;;;4.00;99.90;;;;;;5099215;28;20419;-71
2022/01/12 15:17:32;;;;;;;5.03;3.77;;;4.00;99.90;;;;;;5113134;28;20490;-71
2022/01/12 15:20:21;;;;;;;0.40;0.40;;;3.90;99.90;;;;;;5101623;28;20441;-71
2022/01/12 15:23:08;;;;;;;2.73;1.43;;;3.90;99.90;;;;;;5099942;28;20468;-73
2022/01/12 15:25:55;;;;;;;14.57;5.77;;;3.90;99.90;;;;;;5089452;28;20445;-71
2022/01/12 15:28:42;;;;;;;8.03;2.20;;;3.80;99.90;;;;;;5090981;28;20479;-70
2022/01/12 15:31:29;;;;;;;6.13;2.73;;;3.80;99.90;;;;;;5092486;28;20460;-70
2022/01/12 15:34:17;;;;;;;0.63;0.63;;;3.80;99.90;;;;;;5081990;28;20426;-71
2022/01/12 15:37:05;;;;;;;5.50;3.80;;;3.80;99.90;;;;;;5090321;28;20961;-70
2022/01/12 15:39:54;;;;;;;6.33;2.20;;;3.70;99.90;;;;;;5094133;28;20938;-71
2022/01/12 15:42:41;;;;;;;4.33;2.70;;;3.70;99.90;;;;;;5089817;28;20474;-71
2022/01/12 15:45:28;;;;;;;0.73;0.73;;;3.60;99.90;;;;;;5082040;28;20432;-71
2022/01/12 15:48:15;;;;;;;0.63;0.63;;;3.70;99.90;;;;;;5088548;28;20434;-70
2022/01/12 15:51:02;;;;;;;2.83;1.77;;;3.70;99.90;;;;;;5084878;28;20433;-70
2022/01/12 15:53:52;;;;;;;1.63;1.33;;;3.60;99.90;;;;;;5086093;28;20427;-70